sensor_id;sensor_type;location;lat;lon;timestamp;temperature;humidity
18703;DHT22;9481;48.796;9.210;2022-08-19T00:01:50;26.10;48.30
18703;DHT22;9481;48.796;9.210;2022-08-19T00:04:18;26.10;48.30
18703;DHT22;9481;48.796;9.210;2022-08-19T00:06:50;26.10;48.40
18703;DHT22;9481;48.796;9.210;2022-08-19T00:09:18;26.10;48.40
18703;DHT22;9481;48.796;9.210;2022-08-19T00:11:45;26.10;48.40
18703;DHT22;9481;48.796;9.210;2022-08-19T00:14:14;26.10;48.50
18703;DHT22;9481;48.796;9.210;2022-08-19T00:16:42;26.10;48.50
18703;DHT22;9481;48.796;9.210;2022-08-19T00:19:09;26.00;48.50
18703;DHT22;9481;48.796;9.210;2022-08-19T00:21:35;26.00;48.60
18703;DHT22;9481;48.796;9.210;2022-08-19T00:24:05;26.10;48.70
18703;DHT22;9481;48.796;9.210;2022-08-19T00:26:36;26.00;49.30
18703;DHT22;9481;48.796;9.210;2022-08-19T00:29:03;26.00;48.70
18703;DHT22;9481;48.796;9.210;2022-08-19T00:31:30;26.00;48.70
18703;DHT22;9481;48.796;9.210;2022-08-19T00:33:56;26.00;48.80
18703;DHT22;9481;48.796;9.210;2022-08-19T00:36:23;26.00;48.70
18703;DHT22;9481;48.796;9.210;2022-08-19T00:38:49;26.00;48.80
18703;DHT22;9481;48.796;9.210;2022-08-19T00:41:18;26.00;48.80
18703;DHT22;9481;48.796;9.210;2022-08-19T00:44:00;25.90;48.80
18703;DHT22;9481;48.796;9.210;2022-08-19T00:46:29;26.00;49.30
18703;DHT22;9481;48.796;9.210;2022-08-19T00:48:56;25.90;49.00
18703;DHT22;9481;48.796;9.210;2022-08-19T00:51:24;25.90;49.10
18703;DHT22;9481;48.796;9.210;2022-08-19T00:53:54;25.90;49.10
18703;DHT22;9481;48.796;9.210;2022-08-19T00:56:22;25.90;49.30
18703;DHT22;9481;48.796;9.210;2022-08-19T00:58:49;25.90;49.50
18703;DHT22;9481;48.796;9.210;2022-08-19T01:01:15;25.90;49.60
18703;DHT22;9481;48.796;9.210;2022-08-19T01:03:41;25.90;49.70
18703;DHT22;9481;48.796;9.210;2022-08-19T01:06:06;25.80;49.80
18703;DHT22;9481;48.796;9.210;2022-08-19T01:08:33;25.80;49.80
18703;DHT22;9481;48.796;9.210;2022-08-19T01:10:59;25.80;49.80
18703;DHT22;9481;48.796;9.210;2022-08-19T01:13:29;25.80;49.90
18703;DHT22;9481;48.796;9.210;2022-08-19T01:16:01;25.80;50.00
18703;DHT22;9481;48.796;9.210;2022-08-19T01:18:35;25.80;50.00
18703;DHT22;9481;48.796;9.210;2022-08-19T01:21:09;25.70;49.90
18703;DHT22;9481;48.796;9.210;2022-08-19T01:23:56;25.70;50.10
18703;DHT22;9481;48.796;9.210;2022-08-19T01:26:24;25.70;49.80
18703;DHT22;9481;48.796;9.210;2022-08-19T01:28:53;25.70;49.90
18703;DHT22;9481;48.796;9.210;2022-08-19T01:31:25;25.70;50.00
18703;DHT22;9481;48.796;9.210;2022-08-19T01:33:56;25.70;50.00
18703;DHT22;9481;48.796;9.210;2022-08-19T01:36:29;25.70;50.00
18703;DHT22;9481;48.796;9.210;2022-08-19T01:38:59;25.70;50.10
18703;DHT22;9481;48.796;9.210;2022-08-19T01:41:26;25.70;50.00
18703;DHT22;9481;48.796;9.210;2022-08-19T01:43:53;25.60;50.00
18703;DHT22;9481;48.796;9.210;2022-08-19T01:46:19;25.60;50.00
18703;DHT22;9481;48.796;9.210;2022-08-19T01:48:46;25.60;50.00
18703;DHT22;9481;48.796;9.210;2022-08-19T01:51:13;25.60;50.00
18703;DHT22;9481;48.796;9.210;2022-08-19T01:53:40;25.60;50.00
18703;DHT22;9481;48.796;9.210;2022-08-19T01:56:07;25.60;50.00
18703;DHT22;9481;48.796;9.210;2022-08-19T01:58:42;25.50;50.00
18703;DHT22;9481;48.796;9.210;2022-08-19T02:01:15;25.50;50.20
18703;DHT22;9481;48.796;9.210;2022-08-19T02:03:42;25.50;50.00
18703;DHT22;9481;48.796;9.210;2022-08-19T02:06:08;25.50;50.10
18703;DHT22;9481;48.796;9.210;2022-08-19T02:08:37;25.50;50.20
18703;DHT22;9481;48.796;9.210;2022-08-19T02:11:05;25.50;50.30
18703;DHT22;9481;48.796;9.210;2022-08-19T02:13:33;25.50;50.20
18703;DHT22;9481;48.796;9.210;2022-08-19T02:15:59;25.50;50.20
18703;DHT22;9481;48.796;9.210;2022-08-19T02:18:25;25.50;50.20
18703;DHT22;9481;48.796;9.210;2022-08-19T02:20:52;25.50;50.30
18703;DHT22;9481;48.796;9.210;2022-08-19T02:23:18;25.50;50.30
18703;DHT22;9481;48.796;9.210;2022-08-19T02:25:45;25.50;50.30
18703;DHT22;9481;48.796;9.210;2022-08-19T02:28:12;25.50;50.40
18703;DHT22;9481;48.796;9.210;2022-08-19T02:30:38;25.50;50.40
18703;DHT22;9481;48.796;9.210;2022-08-19T02:33:06;25.40;50.30
18703;DHT22;9481;48.796;9.210;2022-08-19T02:35:32;25.50;50.50
18703;DHT22;9481;48.796;9.210;2022-08-19T02:37:57;25.50;50.60
18703;DHT22;9481;48.796;9.210;2022-08-19T02:40:51;25.50;50.60
18703;DHT22;9481;48.796;9.210;2022-08-19T02:43:19;25.40;50.60
18703;DHT22;9481;48.796;9.210;2022-08-19T02:45:46;25.40;50.60
18703;DHT22;9481;48.796;9.210;2022-08-19T02:48:15;25.40;50.60
18703;DHT22;9481;48.796;9.210;2022-08-19T02:50:42;25.40;50.60
18703;DHT22;9481;48.796;9.210;2022-08-19T02:53:09;25.40;50.60
18703;DHT22;9481;48.796;9.210;2022-08-19T02:55:35;25.40;50.80
18703;DHT22;9481;48.796;9.210;2022-08-19T02:58:01;25.40;50.90
18703;DHT22;9481;48.796;9.210;2022-08-19T03:00:27;25.40;51.00
18703;DHT22;9481;48.796;9.210;2022-08-19T03:02:53;25.40;51.00
18703;DHT22;9481;48.796;9.210;2022-08-19T03:05:19;25.30;51.10
18703;DHT22;9481;48.796;9.210;2022-08-19T03:07:45;25.30;51.10
18703;DHT22;9481;48.796;9.210;2022-08-19T03:10:12;25.30;51.20
18703;DHT22;9481;48.796;9.210;2022-08-19T03:12:38;25.20;51.40
18703;DHT22;9481;48.796;9.210;2022-08-19T03:15:07;25.20;52.10
18703;DHT22;9481;48.796;9.210;2022-08-19T03:17:34;25.20;51.40
18703;DHT22;9481;48.796;9.210;2022-08-19T03:20:01;25.20;51.40
18703;DHT22;9481;48.796;9.210;2022-08-19T03:22:28;25.20;51.50
18703;DHT22;9481;48.796;9.210;2022-08-19T03:24:55;25.20;51.50
18703;DHT22;9481;48.796;9.210;2022-08-19T03:27:21;25.20;51.60
18703;DHT22;9481;48.796;9.210;2022-08-19T03:29:47;25.10;51.50
18703;DHT22;9481;48.796;9.210;2022-08-19T03:32:13;25.10;51.60
18703;DHT22;9481;48.796;9.210;2022-08-19T03:34:39;25.10;51.70
18703;DHT22;9481;48.796;9.210;2022-08-19T03:37:07;25.10;51.70
18703;DHT22;9481;48.796;9.210;2022-08-19T03:39:37;25.10;51.80
18703;DHT22;9481;48.796;9.210;2022-08-19T03:46:05;25.10;52.10
18703;DHT22;9481;48.796;9.210;2022-08-19T03:48:34;25.10;52.00
18703;DHT22;9481;48.796;9.210;2022-08-19T03:51:01;25.00;51.80
18703;DHT22;9481;48.796;9.210;2022-08-19T03:53:28;25.00;51.90
18703;DHT22;9481;48.796;9.210;2022-08-19T03:55:56;25.00;52.00
18703;DHT22;9481;48.796;9.210;2022-08-19T03:58:25;25.00;52.10
18703;DHT22;9481;48.796;9.210;2022-08-19T04:00:57;25.00;52.00
18703;DHT22;9481;48.796;9.210;2022-08-19T04:03:24;24.90;52.00
18703;DHT22;9481;48.796;9.210;2022-08-19T04:05:52;24.90;52.00
18703;DHT22;9481;48.796;9.210;2022-08-19T04:29:45;24.80;52.90
18703;DHT22;9481;48.796;9.210;2022-08-19T04:32:13;24.80;52.10
18703;DHT22;9481;48.796;9.210;2022-08-19T04:34:40;24.70;52.10
18703;DHT22;9481;48.796;9.210;2022-08-19T04:37:08;24.70;52.30
18703;DHT22;9481;48.796;9.210;2022-08-19T04:39:38;24.70;52.40
18703;DHT22;9481;48.796;9.210;2022-08-19T04:42:23;24.60;52.40
18703;DHT22;9481;48.796;9.210;2022-08-19T04:45:12;24.60;52.30
18703;DHT22;9481;48.796;9.210;2022-08-19T04:47:41;24.60;52.40
18703;DHT22;9481;48.796;9.210;2022-08-19T04:50:09;24.60;52.50
18703;DHT22;9481;48.796;9.210;2022-08-19T04:52:36;24.60;52.50
18703;DHT22;9481;48.796;9.210;2022-08-19T04:55:08;24.60;52.60
18703;DHT22;9481;48.796;9.210;2022-08-19T04:57:35;24.60;52.60
18703;DHT22;9481;48.796;9.210;2022-08-19T05:00:10;24.60;52.60
18703;DHT22;9481;48.796;9.210;2022-08-19T05:02:37;24.60;52.70
18703;DHT22;9481;48.796;9.210;2022-08-19T05:05:04;24.60;52.70
18703;DHT22;9481;48.796;9.210;2022-08-19T05:07:31;24.60;52.60
18703;DHT22;9481;48.796;9.210;2022-08-19T05:09:57;24.50;52.70
18703;DHT22;9481;48.796;9.210;2022-08-19T05:12:23;24.50;52.70
18703;DHT22;9481;48.796;9.210;2022-08-19T05:14:49;24.50;52.80
18703;DHT22;9481;48.796;9.210;2022-08-19T05:17:17;24.50;52.90
18703;DHT22;9481;48.796;9.210;2022-08-19T05:19:42;24.50;52.80
18703;DHT22;9481;48.796;9.210;2022-08-19T05:22:34;24.50;52.80
18703;DHT22;9481;48.796;9.210;2022-08-19T05:25:07;24.50;52.80
18703;DHT22;9481;48.796;9.210;2022-08-19T05:27:35;24.50;53.10
18703;DHT22;9481;48.796;9.210;2022-08-19T05:30:01;24.50;52.90
18703;DHT22;9481;48.796;9.210;2022-08-19T05:32:27;24.50;53.10
18703;DHT22;9481;48.796;9.210;2022-08-19T05:34:53;24.50;53.10
18703;DHT22;9481;48.796;9.210;2022-08-19T05:37:19;24.50;53.10
18703;DHT22;9481;48.796;9.210;2022-08-19T05:39:44;24.50;53.20
18703;DHT22;9481;48.796;9.210;2022-08-19T05:42:11;24.60;53.30
18703;DHT22;9481;48.796;9.210;2022-08-19T05:44:40;24.60;53.30
18703;DHT22;9481;48.796;9.210;2022-08-19T05:47:10;24.60;53.30
18703;DHT22;9481;48.796;9.210;2022-08-19T05:49:39;24.60;53.30
18703;DHT22;9481;48.796;9.210;2022-08-19T05:52:11;24.60;53.30
18703;DHT22;9481;48.796;9.210;2022-08-19T05:54:39;24.60;53.30
18703;DHT22;9481;48.796;9.210;2022-08-19T05:57:07;24.60;53.20
18703;DHT22;9481;48.796;9.210;2022-08-19T05:59:34;24.60;53.20
18703;DHT22;9481;48.796;9.210;2022-08-19T06:02:01;24.60;53.20
18703;DHT22;9481;48.796;9.210;2022-08-19T06:04:28;24.60;53.20
18703;DHT22;9481;48.796;9.210;2022-08-19T06:06:54;24.60;53.20
18703;DHT22;9481;48.796;9.210;2022-08-19T06:09:22;24.60;53.20
18703;DHT22;9481;48.796;9.210;2022-08-19T06:11:54;24.60;53.30
18703;DHT22;9481;48.796;9.210;2022-08-19T06:14:30;24.70;53.40
18703;DHT22;9481;48.796;9.210;2022-08-19T06:16:58;24.70;53.40
18703;DHT22;9481;48.796;9.210;2022-08-19T06:19:28;24.70;53.30
18703;DHT22;9481;48.796;9.210;2022-08-19T06:21:58;24.70;53.40
18703;DHT22;9481;48.796;9.210;2022-08-19T06:24:27;24.70;53.40
18703;DHT22;9481;48.796;9.210;2022-08-19T06:26:55;24.70;53.50
18703;DHT22;9481;48.796;9.210;2022-08-19T06:29:24;24.70;53.60
18703;DHT22;9481;48.796;9.210;2022-08-19T06:31:54;24.60;53.70
18703;DHT22;9481;48.796;9.210;2022-08-19T06:34:21;24.70;54.10
18703;DHT22;9481;48.796;9.210;2022-08-19T06:36:50;24.70;54.00
18703;DHT22;9481;48.796;9.210;2022-08-19T06:39:21;24.60;54.10
18703;DHT22;9481;48.796;9.210;2022-08-19T06:41:51;24.60;54.30
18703;DHT22;9481;48.796;9.210;2022-08-19T06:44:20;24.60;54.30
18703;DHT22;9481;48.796;9.210;2022-08-19T06:46:48;24.60;54.50
18703;DHT22;9481;48.796;9.210;2022-08-19T06:49:15;24.60;54.50
18703;DHT22;9481;48.796;9.210;2022-08-19T06:51:43;24.60;54.80
18703;DHT22;9481;48.796;9.210;2022-08-19T06:54:13;24.60;54.90
18703;DHT22;9481;48.796;9.210;2022-08-19T06:56:39;24.60;55.00
18703;DHT22;9481;48.796;9.210;2022-08-19T06:59:10;24.60;55.10
18703;DHT22;9481;48.796;9.210;2022-08-19T07:01:42;24.60;55.30
18703;DHT22;9481;48.796;9.210;2022-08-19T07:04:22;24.60;55.30
18703;DHT22;9481;48.796;9.210;2022-08-19T07:06:55;24.60;55.10
18703;DHT22;9481;48.796;9.210;2022-08-19T07:09:25;24.60;55.20
18703;DHT22;9481;48.796;9.210;2022-08-19T07:11:53;24.60;55.20
18703;DHT22;9481;48.796;9.210;2022-08-19T07:14:24;24.60;55.30
18703;DHT22;9481;48.796;9.210;2022-08-19T07:16:53;24.60;55.30
18703;DHT22;9481;48.796;9.210;2022-08-19T07:19:22;24.60;55.40
18703;DHT22;9481;48.796;9.210;2022-08-19T07:21:50;24.60;55.30
18703;DHT22;9481;48.796;9.210;2022-08-19T07:24:21;24.60;55.30
18703;DHT22;9481;48.796;9.210;2022-08-19T07:26:53;24.60;55.40
18703;DHT22;9481;48.796;9.210;2022-08-19T07:29:22;24.60;55.40
18703;DHT22;9481;48.796;9.210;2022-08-19T07:31:52;24.60;55.30
18703;DHT22;9481;48.796;9.210;2022-08-19T07:34:21;24.60;55.30
18703;DHT22;9481;48.796;9.210;2022-08-19T07:36:49;24.60;55.80
18703;DHT22;9481;48.796;9.210;2022-08-19T07:39:22;24.60;55.20
18703;DHT22;9481;48.796;9.210;2022-08-19T07:41:50;24.60;55.40
18703;DHT22;9481;48.796;9.210;2022-08-19T07:44:18;24.50;55.20
18703;DHT22;9481;48.796;9.210;2022-08-19T07:46:48;24.50;55.30
18703;DHT22;9481;48.796;9.210;2022-08-19T07:49:16;24.50;55.60
18703;DHT22;9481;48.796;9.210;2022-08-19T07:51:56;24.50;55.50
18703;DHT22;9481;48.796;9.210;2022-08-19T07:54:25;24.50;55.90
18703;DHT22;9481;48.796;9.210;2022-08-19T07:56:52;24.50;55.70
18703;DHT22;9481;48.796;9.210;2022-08-19T07:59:19;24.50;55.80
18703;DHT22;9481;48.796;9.210;2022-08-19T08:01:46;24.40;55.90
18703;DHT22;9481;48.796;9.210;2022-08-19T08:04:13;24.40;56.10
18703;DHT22;9481;48.796;9.210;2022-08-19T08:06:58;24.40;56.30
18703;DHT22;9481;48.796;9.210;2022-08-19T08:09:43;24.40;56.30
18703;DHT22;9481;48.796;9.210;2022-08-19T08:12:18;24.40;56.40
18703;DHT22;9481;48.796;9.210;2022-08-19T08:14:50;24.40;56.90
18703;DHT22;9481;48.796;9.210;2022-08-19T08:17:20;24.30;56.80
18703;DHT22;9481;48.796;9.210;2022-08-19T08:19:48;24.30;56.90
18703;DHT22;9481;48.796;9.210;2022-08-19T08:22:19;24.30;56.90
18703;DHT22;9481;48.796;9.210;2022-08-19T08:25:24;24.30;57.10
18703;DHT22;9481;48.796;9.210;2022-08-19T08:27:50;24.30;57.00
18703;DHT22;9481;48.796;9.210;2022-08-19T08:30:18;24.30;57.00
18703;DHT22;9481;48.796;9.210;2022-08-19T08:32:46;24.30;57.10
18703;DHT22;9481;48.796;9.210;2022-08-19T08:35:15;24.30;57.10
18703;DHT22;9481;48.796;9.210;2022-08-19T08:37:44;24.30;57.20
18703;DHT22;9481;48.796;9.210;2022-08-19T08:40:34;24.30;57.30
18703;DHT22;9481;48.796;9.210;2022-08-19T08:43:09;24.30;57.80
18703;DHT22;9481;48.796;9.210;2022-08-19T08:45:46;24.30;57.30
18703;DHT22;9481;48.796;9.210;2022-08-19T08:48:24;24.30;57.60
18703;DHT22;9481;48.796;9.210;2022-08-19T08:51:04;24.30;57.50
18703;DHT22;9481;48.796;9.210;2022-08-19T08:53:35;24.30;57.70
18703;DHT22;9481;48.796;9.210;2022-08-19T08:56:06;24.30;57.50
18703;DHT22;9481;48.796;9.210;2022-08-19T08:58:54;24.30;57.70
18703;DHT22;9481;48.796;9.210;2022-08-19T09:01:25;24.30;58.40
18703;DHT22;9481;48.796;9.210;2022-08-19T09:03:52;24.30;57.80
18703;DHT22;9481;48.796;9.210;2022-08-19T09:06:46;24.40;58.00
18703;DHT22;9481;48.796;9.210;2022-08-19T09:09:45;24.40;58.40
18703;DHT22;9481;48.796;9.210;2022-08-19T09:12:47;24.50;58.30
18703;DHT22;9481;48.796;9.210;2022-08-19T09:15:22;24.50;58.60
18703;DHT22;9481;48.796;9.210;2022-08-19T09:17:54;24.50;58.30
18703;DHT22;9481;48.796;9.210;2022-08-19T09:20:22;24.60;58.30
18703;DHT22;9481;48.796;9.210;2022-08-19T09:22:49;24.50;58.30
18703;DHT22;9481;48.796;9.210;2022-08-19T09:25:18;24.60;58.20
18703;DHT22;9481;48.796;9.210;2022-08-19T09:27:47;24.60;58.20
18703;DHT22;9481;48.796;9.210;2022-08-19T09:30:18;24.60;58.20
18703;DHT22;9481;48.796;9.210;2022-08-19T09:32:47;24.60;58.30
18703;DHT22;9481;48.796;9.210;2022-08-19T09:35:14;24.60;58.30
18703;DHT22;9481;48.796;9.210;2022-08-19T09:37:41;24.60;58.10
18703;DHT22;9481;48.796;9.210;2022-08-19T09:40:08;24.60;58.20
18703;DHT22;9481;48.796;9.210;2022-08-19T09:42:34;24.60;58.40
18703;DHT22;9481;48.796;9.210;2022-08-19T09:45:00;24.60;59.10
18703;DHT22;9481;48.796;9.210;2022-08-19T09:47:26;24.60;58.50
18703;DHT22;9481;48.796;9.210;2022-08-19T09:49:52;24.50;58.50
18703;DHT22;9481;48.796;9.210;2022-08-19T09:52:17;24.50;58.60
18703;DHT22;9481;48.796;9.210;2022-08-19T09:54:43;24.50;58.70
18703;DHT22;9481;48.796;9.210;2022-08-19T09:57:09;24.50;58.70
18703;DHT22;9481;48.796;9.210;2022-08-19T09:59:35;24.50;58.60
18703;DHT22;9481;48.796;9.210;2022-08-19T10:02:01;24.50;58.60
18703;DHT22;9481;48.796;9.210;2022-08-19T10:04:26;24.50;58.80
18703;DHT22;9481;48.796;9.210;2022-08-19T10:07:13;24.50;59.00
18703;DHT22;9481;48.796;9.210;2022-08-19T10:09:38;24.50;59.00
18703;DHT22;9481;48.796;9.210;2022-08-19T10:12:06;24.50;59.20
18703;DHT22;9481;48.796;9.210;2022-08-19T10:14:34;24.50;59.40
18703;DHT22;9481;48.796;9.210;2022-08-19T10:17:01;24.50;59.50
18703;DHT22;9481;48.796;9.210;2022-08-19T10:19:28;24.50;59.50
18703;DHT22;9481;48.796;9.210;2022-08-19T10:21:55;24.50;59.50
18703;DHT22;9481;48.796;9.210;2022-08-19T10:24:21;24.50;59.60
18703;DHT22;9481;48.796;9.210;2022-08-19T10:26:49;24.50;59.50
18703;DHT22;9481;48.796;9.210;2022-08-19T10:29:15;24.60;59.70
18703;DHT22;9481;48.796;9.210;2022-08-19T10:31:42;24.60;59.70
18703;DHT22;9481;48.796;9.210;2022-08-19T10:34:07;24.60;59.70
18703;DHT22;9481;48.796;9.210;2022-08-19T10:36:36;24.60;59.80
18703;DHT22;9481;48.796;9.210;2022-08-19T10:39:08;24.60;59.90
18703;DHT22;9481;48.796;9.210;2022-08-19T10:41:37;24.70;60.30
18703;DHT22;9481;48.796;9.210;2022-08-19T10:44:06;24.70;60.20
18703;DHT22;9481;48.796;9.210;2022-08-19T10:46:37;24.70;60.00
18703;DHT22;9481;48.796;9.210;2022-08-19T10:49:08;24.70;60.00
18703;DHT22;9481;48.796;9.210;2022-08-19T10:51:35;24.80;60.00
18703;DHT22;9481;48.796;9.210;2022-08-19T10:54:19;24.80;60.20
18703;DHT22;9481;48.796;9.210;2022-08-19T10:56:45;24.80;60.20
18703;DHT22;9481;48.796;9.210;2022-08-19T11:01:46;24.90;60.60
18703;DHT22;9481;48.796;9.210;2022-08-19T11:04:13;24.90;60.70
18703;DHT22;9481;48.796;9.210;2022-08-19T11:06:43;25.00;60.60
18703;DHT22;9481;48.796;9.210;2022-08-19T11:09:13;25.00;60.40
18703;DHT22;9481;48.796;9.210;2022-08-19T11:11:41;25.10;60.10
18703;DHT22;9481;48.796;9.210;2022-08-19T11:14:09;25.10;59.80
18703;DHT22;9481;48.796;9.210;2022-08-19T11:16:37;25.10;59.70
18703;DHT22;9481;48.796;9.210;2022-08-19T11:19:07;25.10;59.60
18703;DHT22;9481;48.796;9.210;2022-08-19T11:21:37;25.10;60.20
18703;DHT22;9481;48.796;9.210;2022-08-19T11:24:25;25.10;59.50
18703;DHT22;9481;48.796;9.210;2022-08-19T11:26:53;25.10;59.50
18703;DHT22;9481;48.796;9.210;2022-08-19T11:29:25;25.00;59.00
18703;DHT22;9481;48.796;9.210;2022-08-19T11:31:53;25.00;58.80
18703;DHT22;9481;48.796;9.210;2022-08-19T11:34:23;25.00;58.90
18703;DHT22;9481;48.796;9.210;2022-08-19T11:36:51;25.00;59.10
18703;DHT22;9481;48.796;9.210;2022-08-19T11:39:19;24.90;59.20
18703;DHT22;9481;48.796;9.210;2022-08-19T11:41:46;24.90;59.40
18703;DHT22;9481;48.796;9.210;2022-08-19T11:44:13;24.90;59.60
18703;DHT22;9481;48.796;9.210;2022-08-19T11:46:40;24.90;60.00
18703;DHT22;9481;48.796;9.210;2022-08-19T11:49:12;25.00;60.40
18703;DHT22;9481;48.796;9.210;2022-08-19T11:51:44;25.00;60.50
18703;DHT22;9481;48.796;9.210;2022-08-19T11:54:11;25.00;60.50
18703;DHT22;9481;48.796;9.210;2022-08-19T11:56:39;25.00;60.60
18703;DHT22;9481;48.796;9.210;2022-08-19T11:59:05;25.10;60.80
18703;DHT22;9481;48.796;9.210;2022-08-19T12:01:33;25.10;61.00
18703;DHT22;9481;48.796;9.210;2022-08-19T12:03:59;25.10;61.00
18703;DHT22;9481;48.796;9.210;2022-08-19T12:06:30;25.20;61.00
18703;DHT22;9481;48.796;9.210;2022-08-19T12:09:02;25.20;61.20
18703;DHT22;9481;48.796;9.210;2022-08-19T12:11:30;25.20;61.00
18703;DHT22;9481;48.796;9.210;2022-08-19T12:13:57;25.30;61.10
18703;DHT22;9481;48.796;9.210;2022-08-19T12:16:26;25.30;60.90
18703;DHT22;9481;48.796;9.210;2022-08-19T12:18:53;25.30;61.10
18703;DHT22;9481;48.796;9.210;2022-08-19T12:21:23;25.40;61.20
18703;DHT22;9481;48.796;9.210;2022-08-19T12:23:54;25.40;61.30
18703;DHT22;9481;48.796;9.210;2022-08-19T12:26:23;25.40;61.00
18703;DHT22;9481;48.796;9.210;2022-08-19T12:28:50;25.40;61.20
18703;DHT22;9481;48.796;9.210;2022-08-19T12:31:16;25.40;61.00
18703;DHT22;9481;48.796;9.210;2022-08-19T12:33:43;25.50;61.00
18703;DHT22;9481;48.796;9.210;2022-08-19T12:36:10;25.40;60.80
18703;DHT22;9481;48.796;9.210;2022-08-19T12:38:38;25.40;60.90
18703;DHT22;9481;48.796;9.210;2022-08-19T12:41:06;25.40;60.90
18703;DHT22;9481;48.796;9.210;2022-08-19T12:43:34;25.40;60.90
18703;DHT22;9481;48.796;9.210;2022-08-19T12:46:01;25.40;60.90
18703;DHT22;9481;48.796;9.210;2022-08-19T12:48:27;25.40;61.10
18703;DHT22;9481;48.796;9.210;2022-08-19T12:50:54;25.40;61.20
18703;DHT22;9481;48.796;9.210;2022-08-19T12:53:20;25.30;61.20
18703;DHT22;9481;48.796;9.210;2022-08-19T12:55:45;25.30;61.40
18703;DHT22;9481;48.796;9.210;2022-08-19T12:58:11;25.30;61.50
18703;DHT22;9481;48.796;9.210;2022-08-19T13:00:38;25.30;61.70
18703;DHT22;9481;48.796;9.210;2022-08-19T13:03:05;25.30;61.70
18703;DHT22;9481;48.796;9.210;2022-08-19T13:05:32;25.30;61.70
18703;DHT22;9481;48.796;9.210;2022-08-19T13:07:59;25.30;61.70
18703;DHT22;9481;48.796;9.210;2022-08-19T13:10:29;25.30;61.80
18703;DHT22;9481;48.796;9.210;2022-08-19T13:13:01;25.30;62.00
18703;DHT22;9481;48.796;9.210;2022-08-19T13:15:33;25.30;61.90
18703;DHT22;9481;48.796;9.210;2022-08-19T13:18:01;25.30;62.00
18703;DHT22;9481;48.796;9.210;2022-08-19T13:20:27;25.30;61.90
18703;DHT22;9481;48.796;9.210;2022-08-19T13:22:54;25.30;61.90
18703;DHT22;9481;48.796;9.210;2022-08-19T13:25:20;25.20;61.90
18703;DHT22;9481;48.796;9.210;2022-08-19T13:27:50;25.20;61.80
18703;DHT22;9481;48.796;9.210;2022-08-19T13:30:17;25.20;62.00
18703;DHT22;9481;48.796;9.210;2022-08-19T13:33:03;25.20;61.70
18703;DHT22;9481;48.796;9.210;2022-08-19T13:35:48;25.20;61.60
18703;DHT22;9481;48.796;9.210;2022-08-19T13:38:21;25.10;62.00
18703;DHT22;9481;48.796;9.210;2022-08-19T13:40:49;25.10;61.80
18703;DHT22;9481;48.796;9.210;2022-08-19T13:43:17;25.10;62.00
18703;DHT22;9481;48.796;9.210;2022-08-19T13:45:44;25.10;62.00
18703;DHT22;9481;48.796;9.210;2022-08-19T13:48:10;25.10;62.00
18703;DHT22;9481;48.796;9.210;2022-08-19T13:50:41;25.10;62.10
18703;DHT22;9481;48.796;9.210;2022-08-19T13:53:10;25.10;62.30
18703;DHT22;9481;48.796;9.210;2022-08-19T13:55:40;25.10;62.20
18703;DHT22;9481;48.796;9.210;2022-08-19T13:58:08;25.10;62.30
18703;DHT22;9481;48.796;9.210;2022-08-19T14:00:40;25.10;62.00
18703;DHT22;9481;48.796;9.210;2022-08-19T14:03:11;25.10;62.20
18703;DHT22;9481;48.796;9.210;2022-08-19T14:05:37;25.10;62.00
18703;DHT22;9481;48.796;9.210;2022-08-19T14:08:03;25.10;61.90
18703;DHT22;9481;48.796;9.210;2022-08-19T14:10:29;25.10;61.90
18703;DHT22;9481;48.796;9.210;2022-08-19T14:12:58;25.00;62.00
18703;DHT22;9481;48.796;9.210;2022-08-19T14:15:27;25.00;61.90
18703;DHT22;9481;48.796;9.210;2022-08-19T14:17:53;25.00;61.80
18703;DHT22;9481;48.796;9.210;2022-08-19T14:20:19;25.00;61.80
18703;DHT22;9481;48.796;9.210;2022-08-19T14:22:47;24.90;61.90
18703;DHT22;9481;48.796;9.210;2022-08-19T14:25:17;24.90;62.00
18703;DHT22;9481;48.796;9.210;2022-08-19T14:27:45;24.90;62.10
18703;DHT22;9481;48.796;9.210;2022-08-19T14:30:14;24.80;62.90
18703;DHT22;9481;48.796;9.210;2022-08-19T14:32:42;24.80;62.90
18703;DHT22;9481;48.796;9.210;2022-08-19T14:35:12;24.80;62.00
18703;DHT22;9481;48.796;9.210;2022-08-19T14:37:41;24.70;62.10
18703;DHT22;9481;48.796;9.210;2022-08-19T14:40:08;24.70;62.20
18703;DHT22;9481;48.796;9.210;2022-08-19T14:42:34;24.60;62.10
18703;DHT22;9481;48.796;9.210;2022-08-19T14:45:00;24.60;62.20
18703;DHT22;9481;48.796;9.210;2022-08-19T14:47:26;24.60;62.40
18703;DHT22;9481;48.796;9.210;2022-08-19T14:49:53;24.50;62.70
18703;DHT22;9481;48.796;9.210;2022-08-19T14:52:19;24.50;63.00
18703;DHT22;9481;48.796;9.210;2022-08-19T14:54:45;24.50;63.10
18703;DHT22;9481;48.796;9.210;2022-08-19T14:57:14;24.50;63.20
18703;DHT22;9481;48.796;9.210;2022-08-19T14:59:42;24.50;63.60
18703;DHT22;9481;48.796;9.210;2022-08-19T15:02:09;24.50;63.50
18703;DHT22;9481;48.796;9.210;2022-08-19T15:04:36;24.60;63.60
18703;DHT22;9481;48.796;9.210;2022-08-19T15:07:02;24.50;63.30
18703;DHT22;9481;48.796;9.210;2022-08-19T15:09:32;24.60;63.40
18703;DHT22;9481;48.796;9.210;2022-08-19T15:11:59;24.60;63.30
18703;DHT22;9481;48.796;9.210;2022-08-19T15:14:26;24.60;63.40
18703;DHT22;9481;48.796;9.210;2022-08-19T15:16:53;24.60;63.40
18703;DHT22;9481;48.796;9.210;2022-08-19T15:19:19;24.60;63.50
18703;DHT22;9481;48.796;9.210;2022-08-19T15:21:45;24.60;63.60
18703;DHT22;9481;48.796;9.210;2022-08-19T15:24:11;24.60;64.70
18703;DHT22;9481;48.796;9.210;2022-08-19T15:26:36;24.60;63.80
18703;DHT22;9481;48.796;9.210;2022-08-19T15:29:03;24.60;63.80
18703;DHT22;9481;48.796;9.210;2022-08-19T15:31:30;24.70;64.20
18703;DHT22;9481;48.796;9.210;2022-08-19T15:34:02;24.70;64.10
18703;DHT22;9481;48.796;9.210;2022-08-19T15:36:29;24.80;64.00
18703;DHT22;9481;48.796;9.210;2022-08-19T15:38:55;24.80;63.80
18703;DHT22;9481;48.796;9.210;2022-08-19T15:41:24;24.90;63.50
18703;DHT22;9481;48.796;9.210;2022-08-19T15:43:55;24.90;63.30
18703;DHT22;9481;48.796;9.210;2022-08-19T15:46:24;25.00;63.10
18703;DHT22;9481;48.796;9.210;2022-08-19T15:48:53;25.10;62.60
18703;DHT22;9481;48.796;9.210;2022-08-19T15:51:20;25.10;62.80
18703;DHT22;9481;48.796;9.210;2022-08-19T15:53:46;25.10;62.80
18703;DHT22;9481;48.796;9.210;2022-08-19T15:56:13;25.10;62.60
18703;DHT22;9481;48.796;9.210;2022-08-19T15:58:40;25.20;62.50
18703;DHT22;9481;48.796;9.210;2022-08-19T16:01:24;25.20;62.30
18703;DHT22;9481;48.796;9.210;2022-08-19T16:04:09;25.30;62.20
18703;DHT22;9481;48.796;9.210;2022-08-19T16:06:56;25.30;61.90
18703;DHT22;9481;48.796;9.210;2022-08-19T16:09:26;25.30;61.80
18703;DHT22;9481;48.796;9.210;2022-08-19T16:12:04;25.30;61.90
18703;DHT22;9481;48.796;9.210;2022-08-19T16:14:34;25.40;61.90
18703;DHT22;9481;48.796;9.210;2022-08-19T16:17:02;25.40;61.60
18703;DHT22;9481;48.796;9.210;2022-08-19T16:19:28;25.40;61.50
18703;DHT22;9481;48.796;9.210;2022-08-19T16:21:55;25.40;61.60
18703;DHT22;9481;48.796;9.210;2022-08-19T16:24:23;25.40;61.40
18703;DHT22;9481;48.796;9.210;2022-08-19T16:26:52;25.50;61.20